sensor_id;sensor_type;location;lat;lon;timestamp;P1;durP1;ratioP1;P2;durP2;ratioP2
68050;SDS011;54839;51.364;7.246;2023-04-01T00:02:05;2.10;;;1.03;;
68050;SDS011;54839;51.364;7.246;2023-04-01T00:04:31;2.73;;;1.00;;
68050;SDS011;54839;51.364;7.246;2023-04-01T00:06:57;3.40;;;0.90;;
68050;SDS011;54839;51.364;7.246;2023-04-01T00:09:23;3.77;;;0.90;;
68050;SDS011;54839;51.364;7.246;2023-04-01T00:11:48;2.67;;;1.10;;
68050;SDS011;54839;51.364;7.246;2023-04-01T00:14:14;2.90;;;1.30;;
68050;SDS011;54839;51.364;7.246;2023-04-01T00:16:40;1.60;;;0.90;;
68050;SDS011;54839;51.364;7.246;2023-04-01T00:19:05;3.60;;;0.93;;
68050;SDS011;54839;51.364;7.246;2023-04-01T00:21:31;3.87;;;1.57;;
68050;SDS011;54839;51.364;7.246;2023-04-01T00:23:57;1.63;;;0.97;;
68050;SDS011;54839;51.364;7.246;2023-04-01T00:26:22;2.87;;;1.03;;
68050;SDS011;54839;51.364;7.246;2023-04-01T00:28:49;1.33;;;1.00;;
68050;SDS011;54839;51.364;7.246;2023-04-01T00:31:15;2.03;;;1.20;;
68050;SDS011;54839;51.364;7.246;2023-04-01T00:33:41;9.60;;;1.03;;
68050;SDS011;54839;51.364;7.246;2023-04-01T00:38:36;1.63;;;0.90;;
68050;SDS011;54839;51.364;7.246;2023-04-01T00:41:02;6.63;;;1.07;;
68050;SDS011;54839;51.364;7.246;2023-04-01T00:43:28;1.00;;;0.83;;
68050;SDS011;54839;51.364;7.246;2023-04-01T00:45:55;3.53;;;2.30;;
68050;SDS011;54839;51.364;7.246;2023-04-01T00:48:24;1.30;;;1.00;;
68050;SDS011;54839;51.364;7.246;2023-04-01T00:51:09;1.43;;;0.70;;
68050;SDS011;54839;51.364;7.246;2023-04-01T00:53:44;2.50;;;1.00;;
68050;SDS011;54839;51.364;7.246;2023-04-01T00:56:16;2.70;;;1.53;;
68050;SDS011;54839;51.364;7.246;2023-04-01T00:58:47;1.60;;;0.87;;
68050;SDS011;54839;51.364;7.246;2023-04-01T01:01:16;2.97;;;1.10;;
68050;SDS011;54839;51.364;7.246;2023-04-01T01:03:42;2.50;;;1.03;;
68050;SDS011;54839;51.364;7.246;2023-04-01T01:06:19;2.40;;;1.03;;
68050;SDS011;54839;51.364;7.246;2023-04-01T01:17:25;1.10;;;0.90;;
68050;SDS011;54839;51.364;7.246;2023-04-01T01:22:33;1.67;;;0.90;;
68050;SDS011;54839;51.364;7.246;2023-04-01T01:28:24;2.57;;;1.30;;
68050;SDS011;54839;51.364;7.246;2023-04-01T01:31:03;2.90;;;1.10;;
68050;SDS011;54839;51.364;7.246;2023-04-01T01:33:35;1.10;;;1.00;;
68050;SDS011;54839;51.364;7.246;2023-04-01T01:36:13;1.37;;;1.07;;
68050;SDS011;54839;51.364;7.246;2023-04-01T01:38:40;0.97;;;0.83;;
68050;SDS011;54839;51.364;7.246;2023-04-01T01:41:07;1.17;;;0.70;;
68050;SDS011;54839;51.364;7.246;2023-04-01T01:43:38;4.17;;;1.30;;
68050;SDS011;54839;51.364;7.246;2023-04-01T01:46:11;1.07;;;0.60;;
68050;SDS011;54839;51.364;7.246;2023-04-01T01:48:41;1.10;;;0.87;;
68050;SDS011;54839;51.364;7.246;2023-04-01T01:51:08;3.03;;;0.90;;
68050;SDS011;54839;51.364;7.246;2023-04-01T01:53:34;1.20;;;1.10;;
68050;SDS011;54839;51.364;7.246;2023-04-01T01:56:00;1.13;;;0.50;;
68050;SDS011;54839;51.364;7.246;2023-04-01T02:01:05;1.20;;;0.63;;
68050;SDS011;54839;51.364;7.246;2023-04-01T02:03:36;1.47;;;0.60;;
68050;SDS011;54839;51.364;7.246;2023-04-01T02:06:05;1.30;;;0.80;;
68050;SDS011;54839;51.364;7.246;2023-04-01T02:08:35;4.20;;;1.00;;
68050;SDS011;54839;51.364;7.246;2023-04-01T02:11:10;0.90;;;0.73;;
68050;SDS011;54839;51.364;7.246;2023-04-01T02:13:40;2.27;;;1.13;;
68050;SDS011;54839;51.364;7.246;2023-04-01T02:16:12;1.30;;;0.90;;
68050;SDS011;54839;51.364;7.246;2023-04-01T02:18:41;1.80;;;0.77;;
68050;SDS011;54839;51.364;7.246;2023-04-01T02:21:10;2.20;;;0.70;;
68050;SDS011;54839;51.364;7.246;2023-04-01T02:23:37;2.10;;;1.03;;
68050;SDS011;54839;51.364;7.246;2023-04-01T02:26:05;1.53;;;0.70;;
68050;SDS011;54839;51.364;7.246;2023-04-01T02:28:32;1.13;;;0.80;;
68050;SDS011;54839;51.364;7.246;2023-04-01T02:31:00;1.20;;;0.73;;
68050;SDS011;54839;51.364;7.246;2023-04-01T02:33:27;4.90;;;1.20;;
68050;SDS011;54839;51.364;7.246;2023-04-01T02:35:54;3.70;;;0.93;;
68050;SDS011;54839;51.364;7.246;2023-04-01T02:38:20;1.97;;;0.77;;
68050;SDS011;54839;51.364;7.246;2023-04-01T02:40:50;1.30;;;0.77;;
68050;SDS011;54839;51.364;7.246;2023-04-01T02:43:21;4.77;;;1.13;;
68050;SDS011;54839;51.364;7.246;2023-04-01T02:45:46;0.97;;;0.50;;
68050;SDS011;54839;51.364;7.246;2023-04-01T02:48:12;0.80;;;0.50;;
68050;SDS011;54839;51.364;7.246;2023-04-01T02:50:39;0.80;;;0.70;;
68050;SDS011;54839;51.364;7.246;2023-04-01T02:53:05;2.17;;;0.50;;
68050;SDS011;54839;51.364;7.246;2023-04-01T02:55:31;2.00;;;0.60;;
68050;SDS011;54839;51.364;7.246;2023-04-01T02:57:57;1.70;;;0.97;;
68050;SDS011;54839;51.364;7.246;2023-04-01T03:00:23;1.27;;;0.80;;
68050;SDS011;54839;51.364;7.246;2023-04-01T03:02:48;1.37;;;0.73;;
68050;SDS011;54839;51.364;7.246;2023-04-01T03:05:14;1.60;;;0.90;;
68050;SDS011;54839;51.364;7.246;2023-04-01T03:07:39;1.10;;;0.70;;
68050;SDS011;54839;51.364;7.246;2023-04-01T03:10:05;0.90;;;0.40;;
68050;SDS011;54839;51.364;7.246;2023-04-01T03:12:31;1.07;;;0.47;;
68050;SDS011;54839;51.364;7.246;2023-04-01T03:14:57;1.33;;;0.60;;
68050;SDS011;54839;51.364;7.246;2023-04-01T03:17:22;1.00;;;0.53;;
68050;SDS011;54839;51.364;7.246;2023-04-01T03:19:48;0.70;;;0.43;;
68050;SDS011;54839;51.364;7.246;2023-04-01T03:22:14;0.80;;;0.50;;
68050;SDS011;54839;51.364;7.246;2023-04-01T03:24:40;1.90;;;0.40;;
68050;SDS011;54839;51.364;7.246;2023-04-01T03:27:05;0.77;;;0.53;;
68050;SDS011;54839;51.364;7.246;2023-04-01T03:29:31;0.80;;;0.50;;
68050;SDS011;54839;51.364;7.246;2023-04-01T03:31:56;1.60;;;0.80;;
68050;SDS011;54839;51.364;7.246;2023-04-01T03:34:24;1.83;;;1.30;;
68050;SDS011;54839;51.364;7.246;2023-04-01T03:36:50;0.60;;;0.20;;
68050;SDS011;54839;51.364;7.246;2023-04-01T03:39:16;1.57;;;0.47;;
68050;SDS011;54839;51.364;7.246;2023-04-01T03:41:43;0.87;;;0.43;;
68050;SDS011;54839;51.364;7.246;2023-04-01T03:44:10;2.03;;;1.93;;
68050;SDS011;54839;51.364;7.246;2023-04-01T03:46:35;1.30;;;0.70;;
68050;SDS011;54839;51.364;7.246;2023-04-01T03:49:01;4.17;;;1.27;;
68050;SDS011;54839;51.364;7.246;2023-04-01T03:51:26;0.80;;;0.43;;
68050;SDS011;54839;51.364;7.246;2023-04-01T03:53:52;0.90;;;0.63;;
68050;SDS011;54839;51.364;7.246;2023-04-01T03:56:18;1.20;;;1.10;;
68050;SDS011;54839;51.364;7.246;2023-04-01T03:58:43;1.33;;;1.23;;
68050;SDS011;54839;51.364;7.246;2023-04-01T04:01:19;1.73;;;0.90;;
68050;SDS011;54839;51.364;7.246;2023-04-01T04:03:46;1.47;;;1.33;;
68050;SDS011;54839;51.364;7.246;2023-04-01T04:06:13;2.70;;;1.10;;
68050;SDS011;54839;51.364;7.246;2023-04-01T04:08:39;1.53;;;1.20;;
68050;SDS011;54839;51.364;7.246;2023-04-01T04:11:05;1.40;;;1.30;;
68050;SDS011;54839;51.364;7.246;2023-04-01T04:13:30;1.67;;;1.30;;
68050;SDS011;54839;51.364;7.246;2023-04-01T04:15:56;1.90;;;1.30;;
68050;SDS011;54839;51.364;7.246;2023-04-01T04:18:22;1.20;;;1.10;;
68050;SDS011;54839;51.364;7.246;2023-04-01T04:20:48;1.40;;;1.00;;
68050;SDS011;54839;51.364;7.246;2023-04-01T04:23:15;1.77;;;1.63;;
68050;SDS011;54839;51.364;7.246;2023-04-01T04:25:52;6.23;;;2.63;;
68050;SDS011;54839;51.364;7.246;2023-04-01T04:28:26;1.47;;;1.33;;
68050;SDS011;54839;51.364;7.246;2023-04-01T04:30:52;1.90;;;1.70;;
68050;SDS011;54839;51.364;7.246;2023-04-01T04:33:18;2.27;;;1.73;;
68050;SDS011;54839;51.364;7.246;2023-04-01T04:35:44;2.20;;;2.00;;
68050;SDS011;54839;51.364;7.246;2023-04-01T04:38:10;1.27;;;1.17;;
68050;SDS011;54839;51.364;7.246;2023-04-01T04:40:39;2.07;;;1.30;;
68050;SDS011;54839;51.364;7.246;2023-04-01T04:43:06;1.90;;;1.70;;
68050;SDS011;54839;51.364;7.246;2023-04-01T04:45:32;1.40;;;1.30;;
68050;SDS011;54839;51.364;7.246;2023-04-01T04:47:57;1.50;;;1.40;;
68050;SDS011;54839;51.364;7.246;2023-04-01T04:50:24;1.80;;;1.30;;
68050;SDS011;54839;51.364;7.246;2023-04-01T04:52:50;1.87;;;1.53;;
68050;SDS011;54839;51.364;7.246;2023-04-01T04:55:16;0.80;;;0.80;;
68050;SDS011;54839;51.364;7.246;2023-04-01T04:57:41;1.17;;;0.90;;
68050;SDS011;54839;51.364;7.246;2023-04-01T05:00:07;2.27;;;1.70;;
68050;SDS011;54839;51.364;7.246;2023-04-01T05:02:35;1.40;;;1.30;;
68050;SDS011;54839;51.364;7.246;2023-04-01T05:05:00;1.23;;;1.13;;
68050;SDS011;54839;51.364;7.246;2023-04-01T05:07:26;1.33;;;1.23;;
68050;SDS011;54839;51.364;7.246;2023-04-01T05:09:51;0.97;;;0.77;;
68050;SDS011;54839;51.364;7.246;2023-04-01T05:12:17;1.40;;;1.03;;
68050;SDS011;54839;51.364;7.246;2023-04-01T05:14:42;1.27;;;1.17;;
68050;SDS011;54839;51.364;7.246;2023-04-01T05:17:09;1.20;;;1.10;;
68050;SDS011;54839;51.364;7.246;2023-04-01T05:19:36;1.10;;;1.00;;
68050;SDS011;54839;51.364;7.246;2023-04-01T05:22:02;1.17;;;1.07;;
68050;SDS011;54839;51.364;7.246;2023-04-01T05:24:27;1.13;;;1.03;;
68050;SDS011;54839;51.364;7.246;2023-04-01T05:26:53;1.07;;;0.97;;
68050;SDS011;54839;51.364;7.246;2023-04-01T05:29:20;1.30;;;1.20;;
68050;SDS011;54839;51.364;7.246;2023-04-01T05:31:45;1.57;;;1.47;;
68050;SDS011;54839;51.364;7.246;2023-04-01T05:34:11;1.93;;;1.73;;
68050;SDS011;54839;51.364;7.246;2023-04-01T05:36:36;1.37;;;1.27;;
68050;SDS011;54839;51.364;7.246;2023-04-01T05:39:02;1.77;;;1.47;;
68050;SDS011;54839;51.364;7.246;2023-04-01T05:41:28;1.37;;;1.10;;
68050;SDS011;54839;51.364;7.246;2023-04-01T05:43:53;1.10;;;0.80;;
68050;SDS011;54839;51.364;7.246;2023-04-01T05:46:19;1.13;;;0.87;;
68050;SDS011;54839;51.364;7.246;2023-04-01T05:48:45;1.00;;;1.00;;
68050;SDS011;54839;51.364;7.246;2023-04-01T05:51:12;1.40;;;1.27;;
68050;SDS011;54839;51.364;7.246;2023-04-01T05:53:39;1.10;;;1.00;;
68050;SDS011;54839;51.364;7.246;2023-04-01T05:56:05;1.07;;;1.00;;
68050;SDS011;54839;51.364;7.246;2023-04-01T05:58:33;1.03;;;0.80;;
68050;SDS011;54839;51.364;7.246;2023-04-01T06:01:06;1.30;;;1.20;;
68050;SDS011;54839;51.364;7.246;2023-04-01T06:03:33;0.90;;;0.90;;
68050;SDS011;54839;51.364;7.246;2023-04-01T06:05:59;0.97;;;0.80;;
68050;SDS011;54839;51.364;7.246;2023-04-01T06:08:26;0.70;;;0.60;;
68050;SDS011;54839;51.364;7.246;2023-04-01T06:10:55;1.07;;;0.90;;
68050;SDS011;54839;51.364;7.246;2023-04-01T06:13:41;1.07;;;0.93;;
68050;SDS011;54839;51.364;7.246;2023-04-01T06:16:55;0.97;;;0.90;;
68050;SDS011;54839;51.364;7.246;2023-04-01T06:22:17;1.47;;;1.17;;
68050;SDS011;54839;51.364;7.246;2023-04-01T06:26:08;1.07;;;0.97;;
68050;SDS011;54839;51.364;7.246;2023-04-01T06:28:27;1.20;;;1.10;;
68050;SDS011;54839;51.364;7.246;2023-04-01T06:31:01;1.20;;;1.10;;
68050;SDS011;54839;51.364;7.246;2023-04-01T06:36:49;1.10;;;1.00;;
68050;SDS011;54839;51.364;7.246;2023-04-01T06:39:38;1.20;;;0.93;;
68050;SDS011;54839;51.364;7.246;2023-04-01T06:48:02;1.73;;;1.33;;
68050;SDS011;54839;51.364;7.246;2023-04-01T06:50:50;1.37;;;1.00;;
68050;SDS011;54839;51.364;7.246;2023-04-01T06:56:19;0.80;;;0.70;;
68050;SDS011;54839;51.364;7.246;2023-04-01T06:58:54;1.33;;;0.90;;
68050;SDS011;54839;51.364;7.246;2023-04-01T07:01:26;0.73;;;0.50;;
68050;SDS011;54839;51.364;7.246;2023-04-01T07:04:00;1.70;;;1.50;;
68050;SDS011;54839;51.364;7.246;2023-04-01T07:06:31;1.37;;;1.27;;
68050;SDS011;54839;51.364;7.246;2023-04-01T07:09:03;1.80;;;1.57;;
68050;SDS011;54839;51.364;7.246;2023-04-01T07:11:35;2.07;;;1.90;;
68050;SDS011;54839;51.364;7.246;2023-04-01T07:16:47;1.80;;;1.20;;
68050;SDS011;54839;51.364;7.246;2023-04-01T07:19:40;1.20;;;1.10;;
68050;SDS011;54839;51.364;7.246;2023-04-01T07:22:44;1.97;;;1.87;;
68050;SDS011;54839;51.364;7.246;2023-04-01T07:25:34;2.40;;;2.20;;
68050;SDS011;54839;51.364;7.246;2023-04-01T07:28:05;1.80;;;1.63;;
68050;SDS011;54839;51.364;7.246;2023-04-01T07:36:18;1.30;;;1.20;;
68050;SDS011;54839;51.364;7.246;2023-04-01T07:41:51;1.27;;;1.17;;
68050;SDS011;54839;51.364;7.246;2023-04-01T07:50:16;0.97;;;0.87;;
68050;SDS011;54839;51.364;7.246;2023-04-01T07:55:25;1.00;;;0.80;;
68050;SDS011;54839;51.364;7.246;2023-04-01T08:00:44;1.37;;;0.97;;
68050;SDS011;54839;51.364;7.246;2023-04-01T08:03:29;1.17;;;0.83;;
68050;SDS011;54839;51.364;7.246;2023-04-01T08:06:17;1.10;;;1.00;;
68050;SDS011;54839;51.364;7.246;2023-04-01T08:12:00;1.60;;;1.43;;
68050;SDS011;54839;51.364;7.246;2023-04-01T08:20:28;1.87;;;1.60;;
68050;SDS011;54839;51.364;7.246;2023-04-01T08:23:19;1.33;;;1.23;;
68050;SDS011;54839;51.364;7.246;2023-04-01T08:25:53;1.03;;;0.93;;
68050;SDS011;54839;51.364;7.246;2023-04-01T08:28:29;3.30;;;1.60;;
68050;SDS011;54839;51.364;7.246;2023-04-01T08:31:17;1.30;;;1.20;;
68050;SDS011;54839;51.364;7.246;2023-04-01T08:33:47;2.10;;;1.93;;
68050;SDS011;54839;51.364;7.246;2023-04-01T08:36:22;1.80;;;1.70;;
68050;SDS011;54839;51.364;7.246;2023-04-01T08:41:28;1.53;;;1.43;;
68050;SDS011;54839;51.364;7.246;2023-04-01T08:44:22;2.40;;;2.03;;
68050;SDS011;54839;51.364;7.246;2023-04-01T08:54:44;2.37;;;2.17;;
68050;SDS011;54839;51.364;7.246;2023-04-01T09:00:27;2.30;;;2.10;;
68050;SDS011;54839;51.364;7.246;2023-04-01T09:19:15;1.73;;;1.63;;
68050;SDS011;54839;51.364;7.246;2023-04-01T09:32:40;3.70;;;3.03;;
68050;SDS011;54839;51.364;7.246;2023-04-01T09:35:25;3.30;;;3.00;;
68050;SDS011;54839;51.364;7.246;2023-04-01T09:40:58;4.10;;;3.70;;
68050;SDS011;54839;51.364;7.246;2023-04-01T09:54:53;8.10;;;5.53;;
68050;SDS011;54839;51.364;7.246;2023-04-01T09:57:55;5.30;;;4.80;;
68050;SDS011;54839;51.364;7.246;2023-04-01T10:00:55;5.97;;;4.43;;
68050;SDS011;54839;51.364;7.246;2023-04-01T10:03:51;5.60;;;5.07;;
68050;SDS011;54839;51.364;7.246;2023-04-01T10:09:12;6.30;;;5.20;;
68050;SDS011;54839;51.364;7.246;2023-04-01T10:15:00;5.67;;;4.40;;
68050;SDS011;54839;51.364;7.246;2023-04-01T10:28:51;6.87;;;6.27;;
68050;SDS011;54839;51.364;7.246;2023-04-01T10:31:53;6.00;;;5.40;;
68050;SDS011;54839;51.364;7.246;2023-04-01T10:34:29;5.47;;;4.97;;
68050;SDS011;54839;51.364;7.246;2023-04-01T10:37:39;6.03;;;5.10;;
68050;SDS011;54839;51.364;7.246;2023-04-01T10:46:09;5.80;;;5.07;;
68050;SDS011;54839;51.364;7.246;2023-04-01T10:59:45;7.00;;;6.30;;
68050;SDS011;54839;51.364;7.246;2023-04-01T11:05:32;6.60;;;6.00;;
68050;SDS011;54839;51.364;7.246;2023-04-01T11:11:20;6.23;;;4.83;;
68050;SDS011;54839;51.364;7.246;2023-04-01T11:14:31;5.07;;;4.63;;
68050;SDS011;54839;51.364;7.246;2023-04-01T11:17:26;4.40;;;3.87;;
68050;SDS011;54839;51.364;7.246;2023-04-01T11:23:17;2.97;;;2.73;;
68050;SDS011;54839;51.364;7.246;2023-04-01T11:34:50;2.90;;;2.70;;
68050;SDS011;54839;51.364;7.246;2023-04-01T11:42:52;5.43;;;4.70;;
68050;SDS011;54839;51.364;7.246;2023-04-01T11:50:42;4.50;;;4.10;;
68050;SDS011;54839;51.364;7.246;2023-04-01T11:53:23;4.83;;;3.73;;
68050;SDS011;54839;51.364;7.246;2023-04-01T11:56:11;2.97;;;2.73;;
68050;SDS011;54839;51.364;7.246;2023-04-01T11:59:02;4.43;;;4.07;;
68050;SDS011;54839;51.364;7.246;2023-04-01T12:01:55;4.57;;;4.17;;
68050;SDS011;54839;51.364;7.246;2023-04-01T12:07:15;3.70;;;3.40;;
68050;SDS011;54839;51.364;7.246;2023-04-01T12:12:46;4.50;;;4.10;;
68050;SDS011;54839;51.364;7.246;2023-04-01T12:15:34;3.80;;;3.37;;
68050;SDS011;54839;51.364;7.246;2023-04-01T12:18:23;6.83;;;4.70;;
68050;SDS011;54839;51.364;7.246;2023-04-01T12:21:14;8.33;;;5.53;;
68050;SDS011;54839;51.364;7.246;2023-04-01T12:26:30;4.97;;;4.27;;
68050;SDS011;54839;51.364;7.246;2023-04-01T12:32:53;3.80;;;3.50;;
68050;SDS011;54839;51.364;7.246;2023-04-01T12:46:09;2.60;;;2.40;;
68050;SDS011;54839;51.364;7.246;2023-04-01T12:57:03;3.53;;;3.23;;
68050;SDS011;54839;51.364;7.246;2023-04-01T13:08:15;5.30;;;4.80;;
68050;SDS011;54839;51.364;7.246;2023-04-01T13:16:26;7.17;;;6.50;;
68050;SDS011;54839;51.364;7.246;2023-04-01T13:19:00;6.03;;;5.43;;
68050;SDS011;54839;51.364;7.246;2023-04-01T13:21:54;6.07;;;5.47;;
68050;SDS011;54839;51.364;7.246;2023-04-01T13:24:49;6.63;;;5.93;;
68050;SDS011;54839;51.364;7.246;2023-04-01T13:27:38;8.57;;;7.80;;
68050;SDS011;54839;51.364;7.246;2023-04-01T13:30:28;6.63;;;5.70;;
68050;SDS011;54839;51.364;7.246;2023-04-01T13:36:12;7.57;;;6.87;;
68050;SDS011;54839;51.364;7.246;2023-04-01T13:39:01;5.73;;;5.20;;
68050;SDS011;54839;51.364;7.246;2023-04-01T13:44:16;6.00;;;5.50;;
68050;SDS011;54839;51.364;7.246;2023-04-01T13:52:07;4.83;;;3.90;;
68050;SDS011;54839;51.364;7.246;2023-04-01T14:05:35;5.73;;;5.23;;
68050;SDS011;54839;51.364;7.246;2023-04-01T14:10:59;5.23;;;4.77;;
68050;SDS011;54839;51.364;7.246;2023-04-01T14:13:48;4.60;;;4.20;;
68050;SDS011;54839;51.364;7.246;2023-04-01T14:16:31;5.90;;;5.30;;
68050;SDS011;54839;51.364;7.246;2023-04-01T14:19:30;4.67;;;4.20;;
68050;SDS011;54839;51.364;7.246;2023-04-01T14:33:46;4.50;;;4.10;;
68050;SDS011;54839;51.364;7.246;2023-04-01T14:37:08;4.87;;;3.83;;
68050;SDS011;54839;51.364;7.246;2023-04-01T14:45:33;4.70;;;4.27;;
68050;SDS011;54839;51.364;7.246;2023-04-01T14:50:50;3.20;;;3.00;;
68050;SDS011;54839;51.364;7.246;2023-04-01T14:55:58;4.30;;;3.67;;
68050;SDS011;54839;51.364;7.246;2023-04-01T14:58:58;2.57;;;2.37;;
68050;SDS011;54839;51.364;7.246;2023-04-01T15:13:12;5.07;;;4.57;;
68050;SDS011;54839;51.364;7.246;2023-04-01T15:21:49;4.10;;;3.50;;
68050;SDS011;54839;51.364;7.246;2023-04-01T15:24:20;9.07;;;3.53;;
68050;SDS011;54839;51.364;7.246;2023-04-01T15:27:15;5.03;;;4.33;;
68050;SDS011;54839;51.364;7.246;2023-04-01T15:33:11;5.70;;;5.03;;
68050;SDS011;54839;51.364;7.246;2023-04-01T15:36:02;3.90;;;3.60;;
68050;SDS011;54839;51.364;7.246;2023-04-01T15:46:52;5.37;;;4.93;;
68050;SDS011;54839;51.364;7.246;2023-04-01T16:00:30;5.30;;;4.80;;
68050;SDS011;54839;51.364;7.246;2023-04-01T16:09:06;4.27;;;3.87;;
68050;SDS011;54839;51.364;7.246;2023-04-01T16:14:35;5.20;;;3.77;;
68050;SDS011;54839;51.364;7.246;2023-04-01T16:22:38;2.10;;;2.00;;
68050;SDS011;54839;51.364;7.246;2023-04-01T16:28:03;2.27;;;2.10;;
68050;SDS011;54839;51.364;7.246;2023-04-01T16:30:50;4.30;;;2.73;;
68050;SDS011;54839;51.364;7.246;2023-04-01T16:35:59;2.40;;;2.20;;
68050;SDS011;54839;51.364;7.246;2023-04-01T16:38:50;2.77;;;2.57;;
68050;SDS011;54839;51.364;7.246;2023-04-01T16:41:34;2.50;;;2.30;;
68050;SDS011;54839;51.364;7.246;2023-04-01T16:44:09;2.57;;;2.37;;
68050;SDS011;54839;51.364;7.246;2023-04-01T16:46:51;1.90;;;1.80;;
68050;SDS011;54839;51.364;7.246;2023-04-01T16:49:37;2.70;;;2.50;;
68050;SDS011;54839;51.364;7.246;2023-04-01T16:55:24;3.50;;;3.20;;
68050;SDS011;54839;51.364;7.246;2023-04-01T16:58:26;7.10;;;3.57;;
68050;SDS011;54839;51.364;7.246;2023-04-01T17:01:06;4.63;;;4.23;;
68050;SDS011;54839;51.364;7.246;2023-04-01T17:04:00;4.37;;;4.00;;
68050;SDS011;54839;51.364;7.246;2023-04-01T17:06:38;4.70;;;4.30;;
68050;SDS011;54839;51.364;7.246;2023-04-01T17:09:25;5.50;;;5.00;;
68050;SDS011;54839;51.364;7.246;2023-04-01T17:21:05;7.57;;;6.97;;
68050;SDS011;54839;51.364;7.246;2023-04-01T17:34:26;7.57;;;6.37;;
68050;SDS011;54839;51.364;7.246;2023-04-01T17:39:45;6.23;;;5.63;;
68050;SDS011;54839;51.364;7.246;2023-04-01T17:42:42;6.33;;;5.83;;
68050;SDS011;54839;51.364;7.246;2023-04-01T17:57:02;6.23;;;5.73;;
68050;SDS011;54839;51.364;7.246;2023-04-01T17:59:43;7.13;;;6.43;;
68050;SDS011;54839;51.364;7.246;2023-04-01T18:21:05;6.40;;;5.60;;
68050;SDS011;54839;51.364;7.246;2023-04-01T18:27:06;7.20;;;6.60;;
68050;SDS011;54839;51.364;7.246;2023-04-01T18:29:55;8.37;;;7.70;;
68050;SDS011;54839;51.364;7.246;2023-04-01T18:35:17;9.17;;;8.27;;
68050;SDS011;54839;51.364;7.246;2023-04-01T18:38:00;8.13;;;7.33;;
68050;SDS011;54839;51.364;7.246;2023-04-01T18:40:50;9.70;;;7.97;;
68050;SDS011;54839;51.364;7.246;2023-04-01T18:46:30;9.20;;;8.40;;
68050;SDS011;54839;51.364;7.246;2023-04-01T18:49:13;10.80;;;9.43;;
68050;SDS011;54839;51.364;7.246;2023-04-01T18:52:07;10.13;;;8.63;;
68050;SDS011;54839;51.364;7.246;2023-04-01T18:55:18;9.87;;;8.90;;
68050;SDS011;54839;51.364;7.246;2023-04-01T18:57:58;10.03;;;9.13;;
68050;SDS011;54839;51.364;7.246;2023-04-01T19:00:36;11.00;;;10.00;;
68050;SDS011;54839;51.364;7.246;2023-04-01T19:06:00;12.37;;;10.20;;
68050;SDS011;54839;51.364;7.246;2023-04-01T19:08:34;11.10;;;8.10;;
68050;SDS011;54839;51.364;7.246;2023-04-01T19:19:43;9.13;;;8.23;;
68050;SDS011;54839;51.364;7.246;2023-04-01T19:28:00;9.10;;;8.30;;
68050;SDS011;54839;51.364;7.246;2023-04-01T19:30:56;9.10;;;8.00;;
68050;SDS011;54839;51.364;7.246;2023-04-01T19:38:30;8.20;;;7.50;;
68050;SDS011;54839;51.364;7.246;2023-04-01T19:41:11;9.53;;;8.53;;
68050;SDS011;54839;51.364;7.246;2023-04-01T19:44:11;8.37;;;7.60;;
68050;SDS011;54839;51.364;7.246;2023-04-01T19:46:48;10.20;;;9.20;;
68050;SDS011;54839;51.364;7.246;2023-04-01T20:06:27;4.80;;;4.17;;
68050;SDS011;54839;51.364;7.246;2023-04-01T20:14:45;3.37;;;3.07;;
68050;SDS011;54839;51.364;7.246;2023-04-01T20:17:18;2.93;;;2.73;;
68050;SDS011;54839;51.364;7.246;2023-04-01T20:25:21;3.40;;;3.10;;
68050;SDS011;54839;51.364;7.246;2023-04-01T20:27:53;4.33;;;3.93;;
68050;SDS011;54839;51.364;7.246;2023-04-01T20:44:03;5.23;;;4.73;;
68050;SDS011;54839;51.364;7.246;2023-04-01T20:49:40;4.13;;;3.73;;
68050;SDS011;54839;51.364;7.246;2023-04-01T21:03:13;14.93;;;13.40;;
68050;SDS011;54839;51.364;7.246;2023-04-01T21:17:01;13.23;;;12.03;;
68050;SDS011;54839;51.364;7.246;2023-04-01T21:34:04;4.43;;;4.03;;
68050;SDS011;54839;51.364;7.246;2023-04-01T21:36:56;6.20;;;4.83;;
68050;SDS011;54839;51.364;7.246;2023-04-01T21:58:53;2.47;;;2.27;;
68050;SDS011;54839;51.364;7.246;2023-04-01T22:01:40;2.27;;;2.07;;
68050;SDS011;54839;51.364;7.246;2023-04-01T22:04:32;2.60;;;2.40;;
68050;SDS011;54839;51.364;7.246;2023-04-01T22:09:45;3.20;;;2.53;;
68050;SDS011;54839;51.364;7.246;2023-04-01T22:12:32;3.20;;;3.00;;
68050;SDS011;54839;51.364;7.246;2023-04-01T22:17:51;3.83;;;3.53;;
68050;SDS011;54839;51.364;7.246;2023-04-01T22:20:23;4.30;;;4.00;;
68050;SDS011;54839;51.364;7.246;2023-04-01T22:28:38;4.10;;;3.80;;
68050;SDS011;54839;51.364;7.246;2023-04-01T22:31:20;4.10;;;3.80;;
68050;SDS011;54839;51.364;7.246;2023-04-01T22:34:27;2.70;;;2.50;;
68050;SDS011;54839;51.364;7.246;2023-04-01T22:37:32;3.40;;;3.10;;
68050;SDS011;54839;51.364;7.246;2023-04-01T22:43:10;3.70;;;3.40;;
68050;SDS011;54839;51.364;7.246;2023-04-01T22:45:45;3.87;;;3.60;;
68050;SDS011;54839;51.364;7.246;2023-04-01T22:51:22;3.53;;;3.20;;
68050;SDS011;54839;51.364;7.246;2023-04-01T22:56:34;3.47;;;3.27;;
68050;SDS011;54839;51.364;7.246;2023-04-01T23:01:39;4.20;;;3.90;;
68050;SDS011;54839;51.364;7.246;2023-04-01T23:04:08;7.60;;;4.10;;
68050;SDS011;54839;51.364;7.246;2023-04-01T23:06:46;3.87;;;3.60;;
68050;SDS011;54839;51.364;7.246;2023-04-01T23:09:20;3.70;;;3.40;;
68050;SDS011;54839;51.364;7.246;2023-04-01T23:11:55;3.83;;;3.57;;
68050;SDS011;54839;51.364;7.246;2023-04-01T23:14:54;3.27;;;3.00;;
68050;SDS011;54839;51.364;7.246;2023-04-01T23:28:43;3.20;;;3.00;;
68050;SDS011;54839;51.364;7.246;2023-04-01T23:34:17;3.50;;;3.20;;
68050;SDS011;54839;51.364;7.246;2023-04-01T23:37:11;4.17;;;3.50;;
68050;SDS011;54839;51.364;7.246;2023-04-01T23:39:41;3.90;;;3.60;;
68050;SDS011;54839;51.364;7.246;2023-04-01T23:44:53;4.10;;;3.80;;
68050;SDS011;54839;51.364;7.246;2023-04-01T23:47:23;3.30;;;3.10;;
68050;SDS011;54839;51.364;7.246;2023-04-01T23:50:03;3.13;;;2.80;;
68050;SDS011;54839;51.364;7.246;2023-04-01T23:52:36;3.30;;;3.10;;
